createdAt,value
2022-12-04T00:00:24.831Z,25.12
2022-12-04T00:02:51.352Z,24.23
2022-12-04T00:05:18.005Z,24.63
2022-12-04T00:07:45.375Z,24.50
2022-12-04T00:10:12.166Z,24.33
2022-12-04T00:12:38.833Z,24.52
2022-12-04T00:17:52.716Z,24.23
2022-12-04T00:20:19.947Z,23.42
2022-12-04T00:22:46.527Z,23.50
2022-12-04T00:25:13.051Z,25.00
2022-12-04T00:28:03.801Z,24.63
2022-12-04T00:30:30.453Z,23.98
2022-12-04T00:32:56.966Z,24.15
2022-12-04T00:35:23.563Z,22.73
2022-12-04T00:37:50.098Z,22.83
2022-12-04T00:40:36.833Z,21.83
2022-12-04T00:43:23.608Z,23.27
2022-12-04T00:45:50.440Z,22.55
2022-12-04T00:48:17.117Z,22.33
2022-12-04T00:50:43.689Z,22.87
2022-12-04T00:53:11.146Z,23.20
2022-12-04T00:55:42.311Z,23.42
2022-12-04T00:58:14.629Z,24.20
2022-12-04T01:00:43.195Z,23.52
2022-12-04T01:03:10.378Z,23.95
2022-12-04T01:05:42.070Z,23.02
2022-12-04T01:08:20.866Z,23.80
2022-12-04T01:11:22.447Z,24.48
2022-12-04T01:14:10.713Z,24.48
2022-12-04T01:16:39.072Z,24.20
2022-12-04T01:19:09.027Z,23.80
2022-12-04T01:21:36.878Z,24.15
2022-12-04T01:24:04.318Z,24.90
2022-12-04T01:26:31.788Z,24.80
2022-12-04T01:29:05.768Z,22.90
2022-12-04T01:31:32.444Z,24.58
2022-12-04T01:33:59.076Z,24.37
2022-12-04T01:36:28.094Z,24.42
2022-12-04T01:38:57.031Z,25.02
2022-12-04T01:41:26.922Z,22.87
2022-12-04T02:27:07.001Z,27.60
2022-12-04T02:32:22.142Z,25.70
2022-12-04T02:35:07.213Z,24.45
2022-12-04T02:37:38.402Z,28.02
2022-12-04T02:40:07.966Z,28.02
2022-12-04T02:42:38.979Z,28.48
2022-12-04T02:45:09.698Z,27.70
2022-12-04T02:47:39.932Z,29.73
2022-12-04T02:50:13.991Z,28.62
2022-12-04T02:52:47.366Z,30.95
2022-12-04T02:55:21.772Z,29.05
2022-12-04T02:57:56.030Z,28.20
2022-12-04T03:00:22.712Z,30.92
2022-12-04T03:03:48.921Z,30.95
2022-12-04T03:07:09.646Z,30.88
2022-12-04T03:09:42.921Z,29.40
2022-12-04T03:12:19.447Z,30.25
2022-12-04T03:15:00.275Z,29.95
2022-12-04T03:17:36.117Z,27.75
2022-12-04T03:20:08.683Z,29.02
2022-12-04T03:25:32.007Z,28.33
2022-12-04T03:28:02.504Z,28.60
2022-12-04T03:30:36.816Z,27.77
2022-12-04T03:33:13.154Z,27.95
2022-12-04T03:35:51.553Z,28.55
2022-12-04T03:38:33.786Z,27.80
2022-12-04T03:41:30.162Z,28.90
2022-12-04T03:44:08.891Z,28.58
2022-12-04T03:46:45.420Z,28.73
2022-12-04T03:49:19.419Z,28.02
2022-12-04T03:52:15.395Z,27.45
2022-12-04T03:54:51.914Z,27.98
2022-12-04T03:57:24.016Z,26.40
2022-12-04T03:59:59.089Z,26.27
2022-12-04T04:02:37.584Z,26.08
2022-12-04T04:05:08.784Z,25.55
2022-12-04T04:07:46.435Z,26.48
2022-12-04T04:10:17.065Z,26.85
2022-12-04T04:13:13.355Z,24.85
2022-12-04T04:16:04.544Z,26.48
2022-12-04T04:18:51.417Z,25.20
2022-12-04T04:21:41.913Z,26.20
2022-12-04T04:24:18.909Z,26.23
2022-12-04T04:26:48.096Z,26.48
2022-12-04T04:29:15.082Z,25.88
2022-12-04T04:31:53.944Z,26.08
2022-12-04T04:34:40.397Z,25.65
2022-12-04T04:37:29.096Z,27.00
2022-12-04T04:40:19.062Z,25.60
2022-12-04T04:42:56.771Z,23.45
2022-12-04T04:45:45.573Z,23.30
2022-12-04T04:48:27.372Z,22.08
2022-12-04T04:50:55.076Z,22.30
2022-12-04T04:53:26.915Z,22.42
2022-12-04T04:55:53.842Z,21.23
2022-12-04T04:58:21.618Z,20.85
2022-12-04T05:01:01.700Z,22.17
2022-12-04T05:03:29.696Z,21.23
2022-12-04T05:05:56.761Z,22.58
2022-12-04T05:08:41.872Z,21.15
2022-12-04T05:11:13.269Z,19.98
2022-12-04T05:13:40.745Z,19.40
2022-12-04T05:16:11.797Z,19.90
2022-12-04T05:18:38.538Z,19.15
2022-12-04T05:21:10.320Z,19.23
2022-12-04T05:23:36.888Z,19.08
2022-12-04T05:26:05.138Z,19.33
2022-12-04T05:28:31.772Z,18.70
2022-12-04T05:31:02.813Z,18.02
2022-12-04T05:33:30.660Z,18.33
2022-12-04T05:36:06.079Z,19.30
2022-12-04T05:38:33.330Z,18.90
2022-12-04T05:41:01.488Z,19.10
2022-12-04T05:43:28.469Z,19.05
2022-12-04T05:45:55.033Z,18.67
2022-12-04T05:48:21.649Z,18.55
2022-12-04T05:50:48.198Z,17.58
2022-12-04T05:53:14.822Z,18.70
2022-12-04T05:55:41.367Z,16.60
2022-12-04T05:58:07.911Z,17.17
2022-12-04T06:00:34.464Z,16.98
2022-12-04T06:06:51.325Z,18.62
2022-12-04T06:09:17.894Z,18.50
2022-12-04T06:11:45.020Z,18.37
2022-12-04T06:14:14.909Z,16.50
2022-12-04T06:16:52.209Z,17.40
2022-12-04T06:19:20.572Z,17.45
2022-12-04T06:21:49.028Z,17.05
2022-12-04T06:24:22.960Z,17.23
2022-12-04T06:27:25.756Z,18.08
2022-12-04T06:29:37.198Z,16.33
2022-12-04T06:32:04.099Z,17.25
2022-12-04T06:34:30.820Z,17.15
2022-12-04T06:37:26.195Z,16.52
2022-12-04T06:39:53.100Z,16.25
2022-12-04T06:42:20.108Z,18.20
2022-12-04T06:44:49.862Z,16.67
2022-12-04T06:51:18.805Z,18.40
2022-12-04T06:53:45.874Z,18.98
2022-12-04T06:56:17.981Z,18.55
2022-12-04T06:58:45.634Z,19.87
2022-12-04T07:01:18.662Z,20.52
2022-12-04T07:03:51.045Z,21.20
2022-12-04T07:06:20.330Z,21.33
2022-12-04T07:08:49.819Z,22.00
2022-12-04T07:11:16.683Z,24.85
2022-12-04T07:13:43.674Z,24.58
2022-12-04T07:18:46.339Z,26.08
2022-12-04T07:21:21.518Z,27.85
2022-12-04T07:23:53.173Z,26.70
2022-12-04T07:26:21.156Z,26.77
2022-12-04T07:28:48.514Z,25.70
2022-12-04T07:31:17.850Z,25.85
2022-12-04T07:33:45.805Z,28.42
2022-12-04T07:36:15.550Z,31.35
2022-12-04T07:38:42.860Z,31.25
2022-12-04T07:41:11.849Z,27.08
2022-12-04T07:43:38.695Z,28.80
2022-12-04T07:46:26.207Z,29.50
2022-12-04T07:48:55.626Z,28.15
2022-12-04T07:51:24.550Z,28.83
2022-12-04T07:53:53.334Z,30.08
2022-12-04T07:56:20.381Z,29.35
2022-12-04T07:58:47.489Z,28.20
2022-12-04T08:01:24.070Z,29.50
2022-12-04T08:03:54.627Z,28.62
2022-12-04T08:06:23.007Z,28.38
2022-12-04T08:08:50.771Z,26.10
2022-12-04T08:11:21.166Z,28.60
2022-12-04T08:13:48.180Z,27.20
2022-12-04T08:16:15.725Z,29.77
2022-12-04T08:18:46.786Z,27.87
2022-12-04T08:21:16.961Z,28.45
2022-12-04T08:23:44.514Z,26.45
2022-12-04T08:26:12.728Z,27.45
2022-12-04T08:28:40.008Z,28.20
2022-12-04T08:31:11.030Z,26.10
2022-12-04T08:33:38.123Z,27.40
2022-12-04T08:36:09.826Z,27.15
2022-12-04T08:38:36.786Z,28.48
2022-12-04T08:41:05.618Z,28.50
2022-12-04T08:43:32.828Z,28.83
2022-12-04T08:46:01.724Z,29.20
2022-12-04T08:48:28.373Z,28.17
2022-12-04T08:50:55.710Z,28.35
2022-12-04T08:53:23.111Z,27.85
2022-12-04T08:55:50.098Z,29.42
2022-12-04T08:58:17.345Z,27.55
2022-12-04T09:00:44.038Z,26.98
2022-12-04T09:03:19.166Z,25.92
2022-12-04T09:05:46.653Z,27.45
2022-12-04T09:08:16.228Z,26.55
2022-12-04T09:10:44.551Z,27.48
2022-12-04T09:13:11.086Z,28.02
2022-12-04T09:15:40.832Z,26.05
2022-12-04T09:18:08.649Z,27.20
2022-12-04T09:20:35.812Z,26.25
2022-12-04T09:23:04.934Z,25.62
2022-12-04T09:25:35.291Z,26.02
2022-12-04T09:28:01.892Z,25.35
2022-12-04T09:30:28.523Z,24.40
2022-12-04T09:32:55.081Z,23.52
2022-12-04T09:35:21.632Z,23.17
2022-12-04T09:37:48.179Z,21.55
2022-12-04T09:40:37.109Z,21.77
2022-12-04T09:43:31.187Z,21.70
2022-12-04T09:46:04.180Z,23.38
2022-12-04T09:48:38.976Z,23.27
2022-12-04T09:51:08.214Z,20.50
2022-12-04T09:53:47.347Z,21.17
2022-12-04T09:56:17.318Z,19.50
2022-12-04T09:58:53.261Z,19.95
2022-12-04T10:01:40.812Z,18.98
2022-12-04T10:04:10.396Z,18.12
2022-12-04T10:06:47.732Z,18.62
2022-12-04T10:09:25.643Z,15.25
2022-12-04T10:12:03.560Z,16.75
2022-12-04T10:14:39.217Z,16.40
2022-12-04T10:17:39.644Z,16.48
2022-12-04T10:20:44.658Z,15.98
2022-12-04T10:23:32.637Z,14.75
2022-12-04T10:26:01.470Z,13.05
2022-12-04T10:28:36.800Z,13.18
2022-12-04T10:31:06.395Z,12.73
2022-12-04T10:33:43.987Z,13.20
2022-12-04T10:36:17.008Z,14.13
2022-12-04T10:41:27.343Z,13.40
2022-12-04T10:43:54.201Z,12.57
2022-12-04T10:46:30.457Z,12.98
2022-12-04T10:49:09.507Z,12.48
2022-12-04T10:51:40.350Z,12.73
2022-12-04T10:56:51.028Z,13.55
2022-12-04T11:04:43.429Z,13.90
2022-12-04T11:10:18.219Z,14.75
2022-12-04T11:13:00.892Z,18.33
2022-12-04T11:15:31.602Z,14.77
2022-12-04T11:26:43.009Z,16.05
2022-12-04T11:32:08.239Z,17.37
2022-12-04T11:34:40.084Z,19.23
2022-12-04T11:37:18.724Z,21.25
2022-12-04T11:40:06.915Z,15.75
2022-12-04T11:42:36.989Z,17.70
2022-12-04T11:45:21.361Z,17.23
2022-12-04T11:48:19.539Z,18.42
2022-12-04T11:50:46.031Z,15.07
2022-12-04T11:56:39.396Z,17.17
2022-12-04T11:59:24.303Z,14.90
2022-12-04T12:02:11.191Z,15.15
2022-12-04T12:04:47.710Z,15.73
2022-12-04T12:07:38.396Z,16.90
2022-12-04T12:10:27.977Z,14.68
2022-12-04T12:13:15.890Z,13.50
2022-12-04T12:16:07.994Z,13.02
2022-12-04T12:19:16.691Z,13.75
2022-12-04T12:21:43.254Z,12.25
2022-12-04T12:24:19.571Z,12.55
2022-12-04T12:27:28.898Z,12.80
2022-12-04T12:38:50.551Z,12.75
2022-12-04T12:46:51.785Z,12.30
2022-12-04T12:52:06.487Z,12.93
2022-12-04T12:54:39.109Z,11.98
2022-12-04T12:57:36.779Z,12.32
2022-12-04T13:00:20.477Z,12.57
2022-12-04T13:03:01.733Z,13.62
2022-12-04T13:05:40.813Z,13.62
2022-12-04T13:08:22.805Z,13.68
2022-12-04T13:11:07.458Z,12.50
2022-12-04T13:13:41.147Z,13.35
2022-12-04T13:16:27.135Z,13.43
2022-12-04T13:24:28.749Z,13.50
2022-12-04T13:27:19.486Z,13.13
2022-12-04T13:30:01.791Z,13.25
2022-12-04T13:35:09.255Z,13.70
2022-12-04T13:38:22.794Z,14.05
2022-12-04T13:41:12.609Z,11.10
2022-12-04T13:43:42.368Z,11.30
2022-12-04T13:50:57.293Z,11.43
2022-12-04T13:53:32.553Z,11.48
2022-12-04T13:56:04.441Z,12.07
2022-12-04T14:01:38.573Z,12.32
2022-12-04T14:04:44.706Z,11.55
2022-12-04T14:07:51.561Z,11.80
2022-12-04T14:10:45.209Z,12.25
2022-12-04T14:16:06.588Z,12.48
2022-12-04T14:18:33.333Z,11.68
2022-12-04T14:21:05.353Z,12.20
2022-12-04T14:23:41.146Z,12.85
2022-12-04T14:27:03.675Z,13.00
2022-12-04T14:29:56.170Z,12.23
2022-12-04T14:32:27.133Z,12.15
2022-12-04T14:40:25.264Z,11.25
2022-12-04T14:46:06.298Z,12.68
2022-12-04T14:49:04.018Z,13.68
2022-12-04T14:54:46.344Z,13.27
2022-12-04T14:59:56.088Z,14.73
2022-12-04T15:05:30.366Z,19.62
2022-12-04T15:08:06.667Z,18.65
2022-12-04T15:13:27.384Z,17.05
2022-12-04T15:15:54.181Z,15.38
2022-12-04T15:21:00.395Z,14.75
2022-12-04T15:23:38.939Z,15.65
2022-12-04T15:26:22.181Z,15.88
2022-12-04T15:31:28.028Z,14.93
2022-12-04T15:34:12.224Z,16.45
2022-12-04T15:36:46.723Z,17.30
2022-12-04T15:39:18.620Z,17.55
2022-12-04T15:41:45.555Z,17.42
2022-12-04T15:44:42.384Z,18.80
2022-12-04T15:49:44.163Z,19.70
2022-12-04T15:52:14.202Z,18.62
2022-12-04T15:55:17.015Z,18.62
2022-12-04T15:57:50.370Z,20.63
2022-12-04T16:00:33.033Z,20.50
2022-12-04T16:03:37.245Z,20.70
2022-12-04T16:06:25.600Z,20.02
2022-12-04T16:11:46.480Z,21.60
2022-12-04T16:14:12.995Z,21.87
2022-12-04T16:17:06.239Z,21.27
2022-12-04T16:19:39.439Z,22.87
2022-12-04T16:27:33.283Z,23.35
2022-12-04T16:32:55.491Z,21.95
2022-12-04T16:37:58.280Z,22.37
2022-12-04T16:40:24.870Z,24.45
2022-12-04T16:42:51.551Z,21.48
2022-12-04T16:45:24.183Z,22.80
2022-12-04T16:47:50.811Z,21.95
2022-12-04T16:50:17.492Z,22.48
2022-12-04T16:52:44.333Z,23.12
2022-12-04T16:55:33.329Z,22.95
2022-12-04T16:57:59.874Z,23.52
2022-12-04T17:00:26.546Z,22.77
2022-12-04T17:02:53.258Z,24.05
2022-12-04T17:07:56.154Z,23.52
2022-12-04T17:10:24.339Z,23.23
2022-12-04T17:12:55.558Z,24.67
2022-12-04T17:15:30.056Z,22.73
2022-12-04T17:23:34.926Z,26.73
2022-12-04T17:26:20.456Z,27.52
2022-12-04T17:28:50.412Z,24.05
2022-12-04T17:31:21.221Z,24.17
2022-12-04T17:33:51.409Z,23.77
2022-12-04T17:36:22.092Z,21.67
2022-12-04T17:38:53.237Z,23.25
2022-12-04T17:41:19.794Z,24.85
2022-12-04T17:43:46.958Z,25.25
2022-12-04T17:46:21.567Z,25.80
2022-12-04T17:48:49.041Z,23.50
2022-12-04T17:51:21.353Z,24.12
2022-12-04T17:53:51.385Z,26.00
2022-12-04T17:58:54.038Z,25.17
2022-12-04T18:01:24.126Z,25.58
2022-12-04T18:03:56.325Z,26.25
2022-12-04T18:06:25.587Z,26.62
2022-12-04T18:08:53.363Z,25.52
2022-12-04T18:11:22.410Z,26.73
2022-12-04T18:13:53.496Z,26.60
2022-12-04T18:19:02.120Z,29.20
2022-12-04T18:23:59.729Z,27.52
2022-12-04T18:26:28.193Z,28.58
2022-12-04T18:28:55.645Z,26.65
2022-12-04T18:31:22.548Z,28.42
2022-12-04T18:33:50.053Z,28.20
2022-12-04T18:36:19.531Z,27.13
2022-12-04T18:38:47.176Z,27.15
2022-12-04T18:41:14.783Z,26.65
2022-12-04T18:43:43.581Z,24.02
2022-12-04T18:46:15.884Z,25.48
2022-12-04T18:48:44.416Z,23.50
2022-12-04T18:51:32.691Z,23.85
2022-12-04T18:54:05.807Z,23.87
2022-12-04T18:56:35.347Z,23.80
2022-12-04T18:59:08.491Z,23.33
2022-12-04T19:01:35.784Z,23.67
2022-12-04T19:04:05.230Z,22.95
2022-12-04T19:06:35.621Z,24.52
2022-12-04T19:09:06.008Z,22.25
2022-12-04T19:11:33.487Z,22.30
2022-12-04T19:14:01.761Z,23.90
2022-12-04T19:16:29.649Z,21.65
2022-12-04T19:18:57.493Z,21.23
2022-12-04T19:21:24.802Z,22.83
2022-12-04T19:24:01.002Z,22.87
2022-12-04T19:26:29.285Z,20.50
2022-12-04T19:28:56.541Z,21.08
2022-12-04T19:31:27.498Z,18.98
2022-12-04T19:33:58.462Z,20.60
2022-12-04T19:36:30.252Z,19.70
2022-12-04T19:38:57.914Z,19.55
2022-12-04T19:41:26.898Z,20.65
2022-12-04T19:43:56.966Z,20.45
2022-12-04T19:46:28.130Z,20.95
2022-12-04T19:48:58.254Z,19.87
2022-12-04T19:51:25.766Z,19.00
2022-12-04T19:53:54.926Z,20.05
2022-12-04T19:56:26.726Z,18.90
2022-12-04T19:58:56.277Z,18.23
2022-12-04T20:01:31.525Z,18.73
2022-12-04T20:04:05.441Z,18.50
2022-12-04T20:06:38.009Z,17.58
2022-12-04T20:09:08.108Z,19.05
2022-12-04T20:11:37.348Z,18.52
2022-12-04T20:14:05.250Z,19.25
2022-12-04T20:16:33.683Z,18.80
2022-12-04T20:19:02.001Z,19.08
2022-12-04T20:21:31.734Z,18.85
2022-12-04T20:24:02.068Z,18.92
2022-12-04T20:26:32.385Z,19.00
2022-12-04T20:29:00.865Z,18.85
2022-12-04T20:31:36.584Z,19.62
2022-12-04T20:34:05.935Z,20.15
2022-12-04T20:36:38.178Z,20.73
2022-12-04T20:39:08.031Z,22.70
2022-12-04T20:41:35.115Z,25.40
2022-12-04T20:44:04.837Z,24.00
2022-12-04T20:46:35.356Z,24.20
2022-12-04T20:49:06.295Z,23.05
2022-12-04T20:51:38.833Z,23.85
2022-12-04T20:54:08.056Z,22.45
2022-12-04T21:10:25.557Z,20.05
2022-12-04T21:13:16.555Z,18.37
2022-12-04T21:16:01.608Z,19.20
2022-12-04T21:18:29.473Z,19.37
2022-12-04T21:21:20.680Z,19.12
2022-12-04T21:23:47.256Z,19.98
2022-12-04T21:28:49.038Z,17.87
2022-12-04T21:43:18.314Z,14.13
2022-12-04T21:46:07.451Z,11.95
2022-12-04T21:48:51.741Z,11.20
2022-12-04T21:56:28.850Z,9.48
2022-12-04T21:58:55.889Z,22.35
2022-12-04T22:02:12.705Z,29.30
2022-12-04T22:05:10.812Z,26.67
2022-12-04T22:07:39.239Z,27.48
2022-12-04T22:24:54.015Z,43.20
2022-12-04T22:27:26.307Z,41.95
2022-12-04T22:29:55.796Z,37.08
2022-12-04T22:33:19.809Z,28.38
2022-12-04T22:36:35.211Z,22.23
2022-12-04T22:39:10.712Z,24.42
2022-12-04T22:44:14.182Z,16.92
2022-12-04T22:46:40.794Z,14.82
2022-12-04T22:57:13.600Z,6.18
2022-12-04T23:08:28.188Z,5.03
2022-12-04T23:11:04.771Z,4.87
2022-12-04T23:13:31.667Z,4.87
2022-12-04T23:15:58.285Z,5.03
2022-12-04T23:18:25.224Z,4.70
2022-12-04T23:21:22.883Z,5.05
2022-12-04T23:38:07.625Z,4.40
2022-12-04T23:40:34.198Z,4.62
2022-12-04T23:43:00.777Z,5.30
2022-12-04T23:45:27.336Z,4.07
2022-12-04T23:47:55.791Z,6.03
2022-12-04T23:50:24.669Z,5.68
2022-12-04T23:52:51.452Z,4.87
2022-12-04T23:55:34.705Z,4.50
2022-12-04T23:58:03.427Z,5.18
